createdAt,value
2023-06-16T00:00:34.364Z,43
2023-06-16T00:05:40.460Z,43
2023-06-16T00:10:46.548Z,43
2023-06-16T00:15:52.642Z,43
2023-06-16T00:20:58.731Z,43
2023-06-16T00:26:04.831Z,43
2023-06-16T00:31:10.899Z,43
2023-06-16T00:36:17.005Z,43
2023-06-16T00:41:23.091Z,43
2023-06-16T00:46:29.171Z,43
2023-06-16T00:51:35.270Z,43
2023-06-16T00:56:41.352Z,43
2023-06-16T01:01:47.445Z,43
2023-06-16T01:06:53.536Z,43
2023-06-16T01:11:59.631Z,43
2023-06-16T01:17:05.716Z,43
2023-06-16T01:22:11.799Z,43
2023-06-16T01:27:17.894Z,43
2023-06-16T01:32:23.988Z,43
2023-06-16T01:37:30.147Z,43
2023-06-16T01:42:36.308Z,43
2023-06-16T01:47:42.458Z,43
2023-06-16T01:52:48.601Z,43
2023-06-16T01:57:54.744Z,43
2023-06-16T02:03:00.916Z,43
2023-06-16T02:08:07.049Z,43
2023-06-16T02:13:13.212Z,43
2023-06-16T02:18:19.360Z,43
2023-06-16T02:23:25.517Z,43
2023-06-16T02:28:30.674Z,43
2023-06-16T02:33:36.760Z,43
2023-06-16T02:38:42.849Z,43
2023-06-16T02:43:48.938Z,43
2023-06-16T02:48:55.035Z,43
2023-06-16T02:54:01.120Z,43
2023-06-16T02:59:07.213Z,43
2023-06-16T03:04:13.301Z,43
2023-06-16T03:09:19.390Z,43
2023-06-16T03:14:25.482Z,43
2023-06-16T03:19:30.584Z,43
2023-06-16T03:24:36.672Z,43
2023-06-16T03:29:42.764Z,43
2023-06-16T03:34:48.856Z,43
2023-06-16T03:39:54.964Z,43
2023-06-16T03:45:01.033Z,43
2023-06-16T03:50:07.122Z,43
2023-06-16T03:55:13.207Z,43
2023-06-16T04:00:19.301Z,43
2023-06-16T04:05:25.414Z,43
2023-06-16T04:10:30.514Z,43
2023-06-16T04:15:35.612Z,43
2023-06-16T04:20:41.689Z,43
2023-06-16T04:25:47.794Z,43
2023-06-16T04:30:53.898Z,43
2023-06-16T04:35:59.979Z,43.5
2023-06-16T04:41:06.057Z,44
2023-06-16T04:46:12.155Z,44
2023-06-16T04:51:18.247Z,44
2023-06-16T04:56:24.331Z,44
2023-06-16T05:01:30.428Z,44
2023-06-16T05:06:36.524Z,44
2023-06-16T05:11:42.600Z,45
2023-06-16T05:16:48.725Z,46
2023-06-16T05:21:54.787Z,45.5
2023-06-16T05:27:00.869Z,46
2023-06-16T05:32:05.987Z,46.5
2023-06-16T05:37:12.094Z,47
2023-06-16T05:42:18.196Z,47.5
2023-06-16T05:47:24.246Z,48
2023-06-16T05:52:30.341Z,48.5
2023-06-16T05:57:36.419Z,49
2023-06-16T06:02:42.520Z,49.5
2023-06-16T06:07:48.611Z,49.5
2023-06-16T06:12:54.708Z,50
2023-06-16T06:18:00.840Z,50.5
2023-06-16T06:23:06.869Z,50.5
2023-06-16T06:28:12.959Z,51
2023-06-16T06:33:19.129Z,51.5
2023-06-16T06:38:25.143Z,51.5
2023-06-16T06:43:31.237Z,52
2023-06-16T06:48:37.315Z,52
2023-06-16T06:53:43.413Z,52.5
2023-06-16T06:58:49.618Z,52.5
2023-06-16T07:03:55.591Z,52.5
2023-06-16T07:09:01.711Z,53
2023-06-16T07:14:07.798Z,53
2023-06-16T07:19:13.859Z,53
2023-06-16T07:24:19.970Z,53.5
2023-06-16T07:29:26.050Z,53.5
2023-06-16T07:39:38.223Z,54
2023-06-16T07:44:44.310Z,54
2023-06-16T07:49:50.414Z,54
2023-06-16T07:54:56.491Z,54.5
2023-06-16T08:00:02.585Z,54.5
2023-06-16T08:05:08.678Z,55
2023-06-16T08:10:14.768Z,55
2023-06-16T08:15:20.854Z,55
2023-06-16T08:20:26.945Z,55.5
2023-06-16T08:25:33.037Z,55
2023-06-16T08:30:39.178Z,55.5
2023-06-16T08:35:45.222Z,55.5
2023-06-16T08:40:50.324Z,56
2023-06-16T08:45:56.426Z,56.5
2023-06-16T08:51:02.535Z,56.5
2023-06-16T08:56:08.626Z,56.5
2023-06-16T09:01:14.700Z,56.5
2023-06-16T09:06:20.776Z,56.5
2023-06-16T09:16:32.945Z,57
2023-06-16T09:21:39.036Z,57
2023-06-16T09:31:51.236Z,57
2023-06-16T09:36:57.309Z,57
2023-06-16T09:42:03.402Z,57
2023-06-16T09:52:15.591Z,57.5
2023-06-16T09:57:21.676Z,58.5
2023-06-16T10:02:27.758Z,58.5
2023-06-16T10:07:33.856Z,59.5
2023-06-16T10:12:39.932Z,60
2023-06-16T10:17:46.029Z,60.5
2023-06-16T10:22:52.115Z,60
2023-06-16T10:27:58.205Z,60
2023-06-16T10:33:04.309Z,60.5
2023-06-16T10:38:10.386Z,60
2023-06-16T10:43:16.468Z,60.5
2023-06-16T10:48:22.569Z,60.5
2023-06-16T10:53:28.674Z,61
2023-06-16T10:58:34.751Z,61.5
2023-06-16T11:03:40.837Z,61
2023-06-16T11:08:46.930Z,59.5
2023-06-16T11:13:53.049Z,59
2023-06-16T11:18:58.128Z,59
2023-06-16T11:24:04.217Z,59
2023-06-16T11:29:09.325Z,59
2023-06-16T11:34:15.412Z,59
2023-06-16T11:39:21.519Z,59
2023-06-16T11:44:27.641Z,58.5
2023-06-16T11:49:32.712Z,58.5
2023-06-16T11:54:38.808Z,59
2023-06-16T11:59:44.905Z,59
2023-06-16T12:04:50.993Z,58.5
2023-06-16T12:09:57.134Z,58
2023-06-16T12:15:03.169Z,57.5
2023-06-16T12:20:09.250Z,57.5
2023-06-16T12:25:15.371Z,57.5
2023-06-16T12:30:21.442Z,58
2023-06-16T12:35:27.546Z,57.5
2023-06-16T12:40:32.631Z,59
2023-06-16T12:45:38.718Z,57.5
2023-06-16T12:50:44.858Z,58
2023-06-16T12:55:50.905Z,57.5
2023-06-16T13:00:57.007Z,57.5
2023-06-16T13:06:03.083Z,57.5
2023-06-16T13:11:09.163Z,57
2023-06-16T13:16:15.259Z,57
2023-06-16T13:21:21.339Z,57
2023-06-16T13:26:27.454Z,56
2023-06-16T13:31:32.555Z,56
2023-06-16T13:36:38.677Z,56.5
2023-06-16T13:41:44.734Z,56.5
2023-06-16T13:46:50.828Z,56.5
2023-06-16T13:51:56.920Z,56.5
2023-06-16T13:57:03.016Z,56.5
2023-06-16T14:02:09.094Z,56.5
2023-06-16T14:07:15.185Z,57
2023-06-16T14:12:21.276Z,56.5
2023-06-16T14:17:27.373Z,56.5
2023-06-16T14:22:33.449Z,56.5
2023-06-16T14:27:39.541Z,56.5
2023-06-16T14:32:45.629Z,57
2023-06-16T14:37:51.714Z,57
2023-06-16T14:42:57.817Z,57
2023-06-16T14:48:03.936Z,56.5
2023-06-16T14:53:09.984Z,57
2023-06-16T14:58:16.077Z,57
2023-06-16T15:03:22.201Z,56
2023-06-16T15:08:27.293Z,56
2023-06-16T15:13:32.432Z,55.5
2023-06-16T15:18:38.488Z,55
2023-06-16T15:23:44.678Z,56
2023-06-16T15:28:50.697Z,56
2023-06-16T15:33:56.746Z,56
2023-06-16T15:39:02.844Z,55
2023-06-16T15:44:08.934Z,55
2023-06-16T15:49:15.029Z,55
2023-06-16T15:54:21.196Z,54.5
2023-06-16T15:59:27.264Z,54
2023-06-16T16:04:32.324Z,54
2023-06-16T16:09:38.407Z,54.5
2023-06-16T16:14:44.501Z,54
2023-06-16T16:19:50.571Z,54
2023-06-16T16:24:56.663Z,53.5
2023-06-16T16:30:02.752Z,53.5
2023-06-16T16:35:08.830Z,54.5
2023-06-16T16:40:14.930Z,54.5
2023-06-16T16:45:21.042Z,55.5
2023-06-16T16:50:27.160Z,54.5
2023-06-16T16:55:33.218Z,55
2023-06-16T17:00:39.286Z,55
2023-06-16T17:05:45.422Z,55
2023-06-16T17:10:51.470Z,55
2023-06-16T17:15:57.567Z,55
2023-06-16T17:21:03.651Z,54.5
2023-06-16T17:26:09.748Z,54.5
2023-06-16T17:31:15.863Z,55
2023-06-16T17:36:20.961Z,55.5
2023-06-16T17:41:27.050Z,56
2023-06-16T17:46:32.156Z,56
2023-06-16T17:51:38.248Z,56
2023-06-16T17:56:44.346Z,56.5
2023-06-16T18:01:50.436Z,57
2023-06-16T18:06:56.530Z,56.5
2023-06-16T18:12:02.607Z,56
2023-06-16T18:17:08.695Z,56
2023-06-16T18:22:14.796Z,55.5
2023-06-16T18:27:20.884Z,55.5
2023-06-16T18:32:26.980Z,55.5
2023-06-16T18:37:33.062Z,55
2023-06-16T18:42:39.175Z,55
2023-06-16T18:47:45.251Z,55
2023-06-16T18:52:51.327Z,55
2023-06-16T18:57:57.419Z,54.5
2023-06-16T19:03:03.518Z,54.5
2023-06-16T19:08:09.596Z,54.5
2023-06-16T19:13:15.724Z,54.5
2023-06-16T19:18:21.831Z,54.5
2023-06-16T19:23:27.871Z,54
2023-06-16T19:28:33.997Z,54
2023-06-16T19:33:40.080Z,54
2023-06-16T19:38:46.169Z,54
2023-06-16T19:43:52.238Z,54
2023-06-16T19:48:58.317Z,54
2023-06-16T19:54:04.472Z,54
2023-06-16T19:59:10.624Z,53.5
2023-06-16T20:04:16.783Z,53.5
2023-06-16T20:09:22.931Z,53.5
2023-06-16T20:14:29.080Z,53.5
2023-06-16T20:19:35.224Z,53.5
2023-06-16T20:24:41.374Z,53.5
2023-06-16T20:29:47.599Z,53.5
2023-06-16T20:34:53.674Z,53.5
2023-06-16T20:39:59.833Z,53
2023-06-16T20:45:05.983Z,53
2023-06-16T20:50:12.132Z,53
2023-06-16T20:55:18.298Z,53
2023-06-16T21:00:24.567Z,53
2023-06-16T21:05:30.826Z,53
2023-06-16T21:10:37.091Z,53
2023-06-16T21:15:43.358Z,53
2023-06-16T21:20:49.621Z,53
2023-06-16T21:25:55.894Z,53
2023-06-16T21:31:02.143Z,52.5
2023-06-16T21:36:08.414Z,52.5
2023-06-16T21:41:14.693Z,52.5
2023-06-16T21:46:21.029Z,52.5
2023-06-16T21:51:27.210Z,52.5
2023-06-16T21:56:33.487Z,52.5
2023-06-16T22:01:39.795Z,52.5
2023-06-16T22:06:46.212Z,52.5
2023-06-16T22:11:52.686Z,52.5
2023-06-16T22:16:59.154Z,52.5
2023-06-16T22:22:05.622Z,52
2023-06-16T22:27:12.091Z,52
2023-06-16T22:32:18.594Z,52
2023-06-16T22:37:25.030Z,52
2023-06-16T22:42:31.535Z,52
2023-06-16T22:47:37.971Z,52
2023-06-16T22:52:44.451Z,52
2023-06-16T22:57:50.918Z,52
2023-06-16T23:02:57.394Z,52
2023-06-16T23:08:03.864Z,52
2023-06-16T23:13:10.879Z,52
2023-06-16T23:18:17.895Z,52
2023-06-16T23:23:24.876Z,51.5
2023-06-16T23:28:31.888Z,51.5
2023-06-16T23:33:38.898Z,51.5
2023-06-16T23:38:45.908Z,51.5
2023-06-16T23:43:52.901Z,51.5
2023-06-16T23:48:59.908Z,51.5
2023-06-16T23:54:06.908Z,51.5
2023-06-16T23:59:13.914Z,51.5
